Time;durP1;ratioP1;P1;durP2;ratioP2;P2;SDS_P1;SDS_P2;PMS_P1;PMS_P2;Temp;Humidity;BMP_temperature;BMP_pressure;BME280_temperature;BME280_humidity;BME280_pressure;Samples;Min_cycle;Max_cycle;Signal;HPM_P1;HPM_P2
2022/04/21 06:52:10;;;;;;;11.80;6.93;;;;;;;6.49;74.50;91981.31;1242561;24;20384;-91
2022/04/21 06:55:07;;;;;;;15.48;6.70;;;;;;;6.21;73.77;91948.00;4804086;29;20177;-86
2022/04/21 06:57:33;;;;;;;15.90;6.72;;;;;;;6.27;73.74;91953.91;4782479;29;20046;-88
2022/04/21 06:59:58;;;;;;;16.15;6.88;;;;;;;6.34;73.26;91966.59;4808897;29;20144;-89
2022/04/21 07:02:28;;;;;;;15.40;6.78;;;;;;;6.53;73.32;91979.69;4793037;29;20054;-89
2022/04/21 07:05:00;;;;;;;18.42;7.15;;;;;;;6.42;72.38;91969.41;4808896;29;20125;-89
2022/04/21 07:07:26;;;;;;;12.25;7.13;;;;;;;6.49;72.51;91978.72;4809582;29;20038;-89
2022/04/21 07:09:53;;;;;;;12.32;6.47;;;;;;;6.24;71.66;91938.88;4809136;29;20047;-87
2022/04/21 07:12:20;;;;;;;11.23;6.63;;;;;;;6.50;71.24;91981.03;4808745;29;20047;-89
2022/04/21 07:14:46;;;;;;;12.15;5.65;;;;;;;6.47;70.71;91981.59;4796216;29;20047;-88
2022/04/21 07:17:11;;;;;;;16.00;6.40;;;;;;;6.40;70.45;91984.50;4793497;29;20551;-89
2022/04/21 07:19:37;;;;;;;13.75;6.38;;;;;;;6.33;71.06;91976.22;4809208;29;20039;-87
2022/04/21 07:22:03;;;;;;;14.27;6.60;;;;;;;6.34;71.58;91977.78;4808637;29;20125;-88
2022/04/21 07:24:28;;;;;;;21.33;7.07;;;;;;;6.30;71.12;91961.16;4809263;29;20426;-89
2022/04/21 07:26:54;;;;;;;14.35;6.93;;;;;;;6.38;71.21;91976.19;4809059;29;20134;-88
2022/04/21 07:29:19;;;;;;;17.25;6.85;;;;;;;6.36;71.20;91954.13;4794496;29;20075;-88
2022/04/21 07:31:46;;;;;;;16.38;6.72;;;;;;;6.43;71.05;91965.75;4794905;29;20118;-89
2022/04/21 07:34:11;;;;;;;14.77;7.35;;;;;;;6.47;71.35;91969.34;4779799;29;20047;-88
2022/04/21 07:36:37;;;;;;;14.23;6.57;;;;;;;6.43;71.52;91952.75;4809144;29;20047;-90
2022/04/21 07:39:03;;;;;;;14.13;6.90;;;;;;;6.64;71.88;91958.56;4816597;29;20043;-88
2022/04/21 07:41:28;;;;;;;15.95;7.68;;;;;;;6.65;72.03;91949.69;4829740;29;20015;-89
2022/04/21 07:43:54;;;;;;;12.68;7.00;;;;;;;6.66;72.50;91951.25;4812911;29;20100;-88
2022/04/21 07:46:19;;;;;;;14.05;7.55;;;;;;;6.67;72.46;91945.00;4807354;29;20047;-89
2022/04/21 07:51:29;;;;;;;14.48;5.40;;;;;;;6.59;68.19;91948.19;4810201;29;20516;-88
2022/04/21 07:53:54;;;;;;;7.78;4.80;;;;;;;6.59;67.22;91963.78;4770227;29;20055;-88
2022/04/21 07:56:20;;;;;;;10.98;4.47;;;;;;;6.44;65.32;91941.31;4808819;29;20122;-89
2022/04/21 07:58:46;;;;;;;11.45;4.55;;;;;;;6.51;65.89;91953.19;4778386;29;20074;-88
2022/04/21 08:01:12;;;;;;;9.35;4.70;;;;;;;6.41;65.75;91946.25;4808581;29;20035;-89
2022/04/21 08:03:37;;;;;;;15.63;4.97;;;;;;;6.41;66.83;91951.47;4778220;29;20101;-89
2022/04/21 08:06:06;;;;;;;10.48;4.78;;;;;;;6.47;66.83;91952.97;4794460;29;20555;-87
2022/04/21 08:08:32;;;;;;;10.68;5.20;;;;;;;6.44;66.75;91941.31;4779969;29;20137;-87
2022/04/21 08:10:59;;;;;;;12.20;5.25;;;;;;;6.40;67.27;91934.31;4807616;29;20518;-87
2022/04/21 08:13:25;;;;;;;14.95;5.15;;;;;;;6.60;67.04;91943.78;4777915;29;20046;-88
2022/04/21 08:15:53;;;;;;;10.40;4.25;;;;;;;6.45;66.49;91945.44;4777681;29;20047;-89
2022/04/21 08:18:21;;;;;;;9.43;4.50;;;;;;;6.45;65.31;91942.06;4806770;29;20049;-88
2022/04/21 08:20:48;;;;;;;8.55;4.13;;;;;;;6.64;64.95;91931.75;4792388;29;20476;-88
2022/04/21 08:23:14;;;;;;;8.27;4.03;;;;;;;6.59;63.82;91934.41;4777584;29;20496;-88
2022/04/21 08:33:52;;;;;;;10.75;4.72;;;;;;;6.74;62.69;91923.09;4793708;29;20058;-88
2022/04/21 08:36:18;;;;;;;16.05;4.35;;;;;;;6.72;62.86;91918.16;4807609;29;20039;-88
2022/04/21 08:38:43;;;;;;;10.98;4.78;;;;;;;6.95;63.53;91927.00;4776776;29;20053;-88
2022/04/21 08:41:17;;;;;;;10.70;5.47;;;;;;;7.04;62.78;91916.78;4776146;29;20042;-88
2022/04/21 08:43:46;;;;;;;8.68;4.65;;;;;;;6.98;61.56;91915.28;4807523;29;20126;-88
2022/04/21 08:46:17;;;;;;;13.23;5.07;;;;;;;7.09;63.63;91921.91;4807853;29;20034;-89
2022/04/21 08:48:49;;;;;;;12.18;4.75;;;;;;;7.04;62.47;91896.72;4807864;29;20096;-88
2022/04/21 08:51:15;;;;;;;12.75;5.00;;;;;;;7.10;62.04;91920.88;4806602;29;20149;-88
2022/04/21 08:53:41;;;;;;;10.68;5.18;;;;;;;7.07;62.42;91922.22;4816140;29;20550;-88
2022/04/21 08:56:09;;;;;;;9.43;4.47;;;;;;;6.86;61.90;91911.22;4794932;29;20113;-88
2022/04/21 08:58:34;;;;;;;12.38;5.40;;;;;;;6.92;63.46;91924.22;4810261;29;20099;-89
2022/04/21 09:01:00;;;;;;;11.75;5.03;;;;;;;6.91;62.92;91928.63;4779715;29;20034;-89
2022/04/21 09:03:26;;;;;;;16.38;5.75;;;;;;;6.76;63.63;91908.75;4794512;29;20103;-88
2022/04/21 09:05:51;;;;;;;12.35;5.30;;;;;;;6.94;64.29;91930.69;4810237;29;20099;-88
2022/04/21 09:08:18;;;;;;;9.60;5.07;;;;;;;7.02;64.13;91934.50;4810378;29;20038;-89
2022/04/21 09:10:44;;;;;;;14.68;5.55;;;;;;;6.96;63.54;91925.97;4811763;29;20038;-88
2022/04/21 09:13:10;;;;;;;13.48;6.35;;;;;;;7.02;64.14;91934.50;4838645;29;20119;-89
2022/04/21 09:15:43;;;;;;;10.25;5.38;;;;;;;7.27;63.46;91936.81;4832354;29;20098;-89
2022/04/21 09:18:13;;;;;;;11.88;5.97;;;;;;;7.33;62.15;91929.72;4804378;29;20065;-89
2022/04/21 09:20:39;;;;;;;11.80;6.00;;;;;;;7.34;62.65;91933.88;4817693;29;20054;-89
2022/04/21 09:23:10;;;;;;;12.65;5.65;;;;;;;7.44;62.45;91940.78;4825777;29;20070;-88
2022/04/21 09:25:47;;;;;;;18.05;5.38;;;;;;;7.34;63.34;91936.47;4793648;29;20125;-89
2022/04/21 09:28:39;;;;;;;13.88;5.32;;;;;;;7.41;61.81;91942.13;4808816;29;20129;-89
2022/04/21 09:31:08;;;;;;;13.27;5.75;;;;;;;7.41;62.29;91923.13;4806481;29;20058;-88
2022/04/21 09:33:36;;;;;;;11.50;5.97;;;;;;;7.48;61.36;91928.75;4812123;29;20047;-88
2022/04/21 09:36:05;;;;;;;13.20;5.45;;;;;;;7.47;60.82;91916.78;4812198;29;20456;-88
2022/04/21 09:38:31;;;;;;;9.65;5.28;;;;;;;7.53;61.15;91928.69;4812041;29;20051;-88
2022/04/21 09:41:17;;;;;;;14.00;6.25;;;;;;;7.64;61.35;91934.53;4812808;29;20030;-89
2022/04/21 09:43:43;;;;;;;14.35;5.70;;;;;;;7.68;60.56;91933.69;4811487;29;20062;-89
2022/04/21 09:46:16;;;;;;;15.15;6.95;;;;;;;7.76;60.68;91931.50;4812083;29;20463;-88
2022/04/21 09:48:44;;;;;;;13.02;6.53;;;;;;;7.77;60.97;91936.44;4813083;29;20057;-89
2022/04/21 09:51:17;;;;;;;14.20;6.28;;;;;;;7.81;60.25;91937.41;4812456;29;20105;-88
2022/04/21 09:53:53;;;;;;;14.73;5.90;;;;;;;7.85;60.17;91932.44;4830205;29;20058;-88
2022/04/21 09:56:33;;;;;;;15.02;5.57;;;;;;;7.98;60.19;91929.13;4812854;29;20042;-87
2022/04/21 09:59:08;;;;;;;14.00;6.13;;;;;;;8.13;59.10;91915.84;4829187;29;20042;-89
2022/04/21 10:01:36;;;;;;;13.10;6.78;;;;;;;8.13;58.27;91894.22;4828675;29;20049;-89
2022/04/21 10:04:06;;;;;;;13.95;5.82;;;;;;;8.40;58.07;91914.44;4812907;29;20048;-89
2022/04/21 10:06:32;;;;;;;13.15;6.38;;;;;;;8.55;57.95;91911.53;4812179;29;20046;-89
2022/04/21 10:08:58;;;;;;;18.88;7.25;;;;;;;8.33;57.65;91895.72;4812474;29;20054;-89
2022/04/21 10:11:24;;;;;;;14.40;6.30;;;;;;;7.97;58.57;91885.88;4813257;29;20041;-88
2022/04/21 10:13:54;;;;;;;15.32;6.72;;;;;;;8.49;58.97;91894.44;4801600;29;20129;-89
2022/04/21 10:16:24;;;;;;;14.55;6.75;;;;;;;8.41;56.70;91882.06;4797993;29;20042;-88
2022/04/21 10:18:54;;;;;;;19.95;6.88;;;;;;;8.57;58.01;91900.06;4796728;29;20150;-89
2022/04/21 10:21:32;;;;;;;19.15;7.03;;;;;;;8.91;56.97;91903.09;4828244;29;20064;-90
2022/04/21 10:23:58;;;;;;;12.05;5.57;;;;;;;8.92;57.65;91877.78;4829410;29;20050;-88
2022/04/21 10:26:53;;;;;;;15.38;5.60;;;;;;;8.96;56.45;91900.41;4814475;29;20038;-88
2022/04/21 10:29:23;;;;;;;13.40;5.80;;;;;;;8.75;57.70;91904.44;4797362;29;20077;-89
2022/04/21 10:31:54;;;;;;;11.38;5.70;;;;;;;8.88;58.30;91898.44;4797601;29;20067;-88
2022/04/21 10:34:45;;;;;;;13.93;5.55;;;;;;;9.36;57.00;91900.66;4813981;29;20136;-89
2022/04/21 10:37:11;;;;;;;23.85;7.18;;;;;;;9.37;55.69;91883.16;4811849;29;20039;-89
2022/04/21 10:39:38;;;;;;;15.65;6.65;;;;;;;9.17;55.99;91885.09;4812429;29;20030;-89
2022/04/21 10:42:18;;;;;;;17.75;7.03;;;;;;;9.36;55.54;91898.03;4797150;29;20178;-89
2022/04/21 10:44:46;;;;;;;14.38;6.40;;;;;;;9.01;55.94;91886.47;4813916;29;20173;-89
2022/04/21 10:47:36;;;;;;;15.00;6.50;;;;;;;8.90;56.88;91898.16;4812881;29;20106;-89
2022/04/21 10:50:11;;;;;;;18.27;6.63;;;;;;;9.37;57.38;91899.59;4814366;29;20117;-89
2022/04/21 10:58:33;;;;;;;24.05;7.47;;;;;;;8.95;58.37;91882.41;4799015;29;20494;-89
2022/04/21 11:01:09;;;;;;;16.48;7.07;;;;;;;9.47;56.24;91903.06;4795724;29;20118;-89
2022/04/21 11:03:36;;;;;;;15.27;6.88;;;;;;;9.38;57.32;91905.59;4827170;29;20053;-89
2022/04/21 11:06:05;;;;;;;19.17;7.18;;;;;;;8.84;57.27;91907.91;4811148;29;20046;-89
2022/04/21 11:08:31;;;;;;;19.33;7.90;;;;;;;8.78;58.35;91909.09;4795809;29;20122;-89
2022/04/21 11:10:57;;;;;;;17.50;8.07;;;;;;;8.84;57.30;91900.09;4795763;29;20566;-89
2022/04/21 11:13:39;;;;;;;26.73;9.02;;;;;;;8.60;58.68;91913.31;4810926;29;20042;-88
2022/04/21 11:16:05;;;;;;;;;;;;;;;8.65;58.61;91917.66;4811228;29;20039;-89
2022/04/21 11:18:31;;;;;;;18.45;8.93;;;;;;;8.73;59.33;91911.78;4827490;29;19912;-88
2022/04/21 11:21:20;;;;;;;21.25;10.45;;;;;;;8.76;61.06;91921.66;4810636;29;20038;-89
2022/04/21 11:23:59;;;;;;;26.52;11.23;;;;;;;8.69;60.71;91927.25;4826796;29;20049;-89
2022/04/21 11:26:26;;;;;;;20.75;10.35;;;;;;;8.47;60.80;91927.88;4810922;29;20060;-89
2022/04/21 11:28:52;;;;;;;27.73;11.40;;;;;;;8.58;62.67;91930.28;4781666;29;20034;-89
2022/04/21 11:31:21;;;;;;;27.25;11.10;;;;;;;8.79;61.19;91931.50;4795453;29;20385;-89
2022/04/21 11:33:47;;;;;;;22.40;9.55;;;;;;;8.80;58.90;91922.59;4795761;29;20079;-89
2022/04/21 11:36:14;;;;;;;22.27;8.98;;;;;;;8.69;59.79;91922.03;4795147;29;20035;-89
2022/04/21 11:38:41;;;;;;;19.50;8.57;;;;;;;8.55;58.71;91921.97;4795771;29;20053;-88
2022/04/21 11:41:09;;;;;;;17.52;8.05;;;;;;;8.59;59.15;91939.69;4795374;29;20043;-88
2022/04/21 11:43:35;;;;;;;22.25;8.57;;;;;;;8.62;59.77;91941.72;4809983;29;20453;-88
2022/04/21 11:46:04;;;;;;;22.50;8.52;;;;;;;8.61;58.25;91943.56;4810719;29;20080;-89
2022/04/21 11:48:33;;;;;;;16.27;7.63;;;;;;;8.55;59.64;91952.50;4826467;29;20031;-88
2022/04/21 11:50:59;;;;;;;23.17;8.57;;;;;;;8.14;60.97;91911.41;4810511;29;20115;-89
2022/04/21 11:53:28;;;;;;;17.65;8.43;;;;;;;8.56;59.82;91954.06;4826764;29;20064;-88
2022/04/21 11:55:54;;;;;;;15.45;7.35;;;;;;;8.70;59.68;91960.09;4809510;29;20058;-88
2022/04/21 11:58:32;;;;;;;23.08;8.43;;;;;;;8.80;59.07;91940.88;4826044;29;20054;-88
2022/04/21 12:06:38;;;;;;;17.67;8.13;;;;;;;9.18;58.18;91954.53;4809723;29;20046;-89
2022/04/21 12:09:05;;;;;;;15.50;8.20;;;;;;;9.44;57.70;91956.69;4810557;29;20047;-88
2022/04/21 12:11:34;;;;;;;15.95;8.15;;;;;;;9.58;57.43;91961.88;4795127;29;20034;-89
2022/04/21 12:14:00;;;;;;;21.25;8.85;;;;;;;9.78;56.84;91950.25;4809673;29;20046;-89
2022/04/21 12:16:36;;;;;;;21.45;9.40;;;;;;;9.92;55.89;91945.00;4826486;29;20533;-89
2022/04/21 12:19:26;;;;;;;16.38;8.65;;;;;;;10.04;54.95;91955.69;4813051;29;20046;-88
2022/04/21 12:21:57;;;;;;;22.80;8.93;;;;;;;9.47;55.44;91939.66;4815840;29;20167;-88
2022/04/21 12:24:37;;;;;;;19.67;9.25;;;;;;;9.58;56.61;91952.22;4832253;29;20053;-88
2022/04/21 12:27:05;;;;;;;23.42;11.15;;;;;;;9.54;54.89;91924.34;4832939;29;20041;-89
2022/04/21 12:29:44;;;;;;;23.42;10.50;;;;;;;9.77;55.25;91938.22;4831963;29;20038;-88
2022/04/21 12:32:09;;;;;;;28.30;10.98;;;;;;;9.85;55.04;91928.94;4810527;29;20163;-89
2022/04/21 12:34:39;;;;;;;20.02;9.02;;;;;;;10.01;54.50;91936.13;4809776;29;20125;-89
2022/04/21 12:37:06;;;;;;;21.45;10.00;;;;;;;10.04;53.73;91923.53;4795141;29;20118;-89
2022/04/21 12:39:33;;;;;;;22.67;11.27;;;;;;;10.14;52.94;91916.25;4781444;29;20103;-88
2022/04/21 12:42:01;;;;;;;22.38;10.43;;;;;;;10.23;52.94;91926.00;4827221;29;20033;-89
2022/04/21 12:44:27;;;;;;;21.80;10.30;;;;;;;10.34;53.32;91922.13;4817029;29;20065;-88
2022/04/21 12:47:02;;;;;;;18.90;10.55;;;;;;;10.38;53.47;91923.03;4800712;29;20472;-89
2022/04/21 12:49:57;;;;;;;21.00;10.07;;;;;;;10.30;53.93;91914.09;4814647;29;20046;-89
2022/04/21 12:52:35;;;;;;;20.75;9.80;;;;;;;10.66;53.28;91915.06;4832427;29;20034;-89
2022/04/21 12:55:05;;;;;;;21.60;10.35;;;;;;;10.73;51.47;91902.31;4848265;29;20038;-89
2022/04/21 12:57:31;;;;;;;15.80;9.20;;;;;;;10.55;51.04;91870.06;4817154;29;20026;-89
2022/04/21 12:59:57;;;;;;;17.15;10.18;;;;;;;10.60;52.35;91891.66;4826503;29;20045;-89
2022/04/21 13:02:23;;;;;;;24.60;10.90;;;;;;;10.55;51.72;91875.28;4808835;29;20464;-88
2022/04/21 13:04:49;;;;;;;26.40;10.30;;;;;;;10.50;52.90;91881.44;4809227;29;20054;-88
2022/04/21 13:07:15;;;;;;;20.15;10.07;;;;;;;10.58;51.99;91896.41;4824982;29;20066;-88
2022/04/21 13:09:41;;;;;;;18.55;9.60;;;;;;;9.70;53.31;91881.13;4779419;29;20038;-88
2022/04/21 13:12:08;;;;;;;20.70;10.63;;;;;;;9.94;54.41;91890.56;4808800;29;20050;-88
2022/04/21 13:14:34;;;;;;;18.60;10.05;;;;;;;9.94;54.10;91891.34;4779042;29;20493;-89
2022/04/21 13:17:00;;;;;;;20.55;10.65;;;;;;;9.88;53.97;91886.50;4793756;29;20066;-89
2022/04/21 13:19:25;;;;;;;22.13;10.25;;;;;;;9.79;54.13;91878.59;4808534;29;20038;-88
2022/04/21 13:21:55;;;;;;;19.10;9.75;;;;;;;9.96;54.29;91881.34;4808661;29;20066;-90
2022/04/21 13:24:23;;;;;;;23.55;10.45;;;;;;;9.50;54.49;91856.25;4824937;29;20071;-88
2022/04/21 13:26:49;;;;;;;18.80;10.07;;;;;;;9.43;55.00;91868.91;4808305;29;20038;-88
2022/04/21 13:29:15;;;;;;;24.55;10.23;;;;;;;9.41;53.83;91859.81;4825184;29;20052;-89
2022/04/21 13:34:25;;;;;;;24.75;11.15;;;;;;;9.30;55.11;91857.44;4796286;29;20042;-88
2022/04/21 13:36:50;;;;;;;22.23;10.90;;;;;;;9.49;55.47;91866.97;4808949;29;20372;-88
2022/04/21 13:39:17;;;;;;;20.63;10.23;;;;;;;9.47;54.68;91856.03;4793159;29;20488;-88
2022/04/21 13:41:43;;;;;;;24.95;10.73;;;;;;;9.46;55.17;91860.50;4794133;29;20042;-88
2022/04/21 13:44:09;;;;;;;18.63;9.57;;;;;;;9.55;55.67;91840.44;4808618;29;20042;-89
2022/04/21 13:46:35;;;;;;;23.83;10.80;;;;;;;9.65;54.92;91851.75;4793762;29;20396;-89
2022/04/21 13:49:04;;;;;;;23.58;11.52;;;;;;;9.25;55.39;91854.91;4825045;29;20130;-89
2022/04/21 13:51:30;;;;;;;23.42;10.90;;;;;;;9.33;55.03;91856.06;4808953;29;20125;-88
2022/04/21 13:53:56;;;;;;;21.30;11.50;;;;;;;9.57;53.84;91846.16;4825441;29;20061;-88
2022/04/21 13:56:23;;;;;;;21.92;11.10;;;;;;;9.71;55.17;91825.19;4825274;29;20046;-88
2022/04/21 13:58:49;;;;;;;24.67;11.45;;;;;;;9.81;53.23;91842.47;4808282;29;20042;-89
2022/04/21 14:01:16;;;;;;;28.30;10.40;;;;;;;9.74;54.05;91842.13;4792759;29;20046;-88
2022/04/21 14:03:42;;;;;;;23.52;10.35;;;;;;;9.96;54.63;91833.53;4808102;29;20377;-89
2022/04/21 14:06:08;;;;;;;22.80;10.98;;;;;;;9.97;54.64;91842.91;4808316;29;20076;-89
2022/04/21 14:08:38;;;;;;;21.00;10.25;;;;;;;10.07;53.93;91834.06;4778346;29;20487;-88
2022/04/21 14:11:07;;;;;;;19.08;10.10;;;;;;;9.93;53.85;91824.44;4824321;29;20070;-88
2022/04/21 14:13:33;;;;;;;23.35;11.07;;;;;;;9.60;53.96;91805.59;4793581;29;20034;-89
2022/04/21 14:16:00;;;;;;;20.17;10.77;;;;;;;9.41;54.94;91820.63;4807904;29;20406;-88
2022/04/21 14:18:26;;;;;;;22.13;10.20;;;;;;;9.49;55.40;91802.44;4809089;29;20042;-88
2022/04/21 14:20:53;;;;;;;19.15;10.18;;;;;;;9.29;55.73;91814.09;4811490;29;20042;-88
2022/04/21 14:23:23;;;;;;;23.05;10.75;;;;;;;9.55;54.74;91822.16;4811666;29;20498;-88
2022/04/21 14:25:49;;;;;;;27.77;10.57;;;;;;;9.64;54.42;91814.38;4828349;29;20050;-88
2022/04/21 14:28:15;;;;;;;17.70;9.52;;;;;;;9.73;54.66;91799.53;4827616;29;20046;-89
2022/04/21 14:30:41;;;;;;;26.45;11.02;;;;;;;9.84;54.64;91804.50;4796607;29;20086;-89
2022/04/21 14:33:08;;;;;;;21.23;10.77;;;;;;;10.00;54.67;91816.19;4795935;29;20495;-89
2022/04/21 14:35:34;;;;;;;22.88;10.75;;;;;;;10.14;53.74;91806.41;4811299;29;20050;-88
2022/04/21 14:46:12;;;;;;;21.90;10.10;;;;;;;10.26;53.64;91803.22;4811334;29;20141;-88
2022/04/21 14:48:37;;;;;;;16.60;9.70;;;;;;;10.04;53.47;91793.56;4795664;29;20115;-89
2022/04/21 14:51:04;;;;;;;24.42;10.23;;;;;;;9.99;54.01;91812.00;4810742;29;20054;-88
2022/04/21 14:53:30;;;;;;;22.02;10.07;;;;;;;9.99;54.21;91807.53;4826736;29;20070;-89
2022/04/21 14:55:56;;;;;;;19.38;10.23;;;;;;;9.83;54.71;91789.91;4781133;29;20046;-88
2022/04/21 14:58:22;;;;;;;15.88;8.70;;;;;;;9.65;55.06;91800.25;4781169;29;20062;-88
2022/04/21 15:00:48;;;;;;;18.45;9.38;;;;;;;9.75;54.77;91802.63;4781728;29;20126;-88
2022/04/21 15:03:14;;;;;;;21.70;9.77;;;;;;;9.72;55.71;91787.53;4796051;29;20059;-88
2022/04/21 15:05:41;;;;;;;18.40;9.68;;;;;;;9.77;54.26;91781.41;4795474;29;20045;-89
2022/04/21 15:08:08;;;;;;;18.08;9.55;;;;;;;9.92;55.23;91801.97;4781257;29;20498;-90
2022/04/21 15:10:45;;;;;;;22.88;9.77;;;;;;;9.71;55.19;91799.06;4795722;29;20034;-89
2022/04/21 15:13:13;;;;;;;19.27;9.65;;;;;;;9.58;55.50;91790.19;4810650;29;20498;-89
2022/04/21 15:15:42;;;;;;;19.65;10.05;;;;;;;9.73;54.92;91783.09;4781223;29;20133;-89
2022/04/21 15:18:07;;;;;;;20.10;9.65;;;;;;;9.82;55.65;91802.22;4810705;29;20031;-89
2022/04/21 15:20:34;;;;;;;22.08;9.73;;;;;;;9.67;55.49;91785.03;4795657;29;20057;-89
2022/04/21 15:23:00;;;;;;;16.95;9.30;;;;;;;9.94;55.79;91781.53;4810650;29;20510;-90
2022/04/21 15:25:27;;;;;;;17.80;8.73;;;;;;;10.05;54.74;91782.06;4795877;29;20039;-90
2022/04/21 15:27:54;;;;;;;19.92;8.70;;;;;;;10.02;55.22;91777.44;4795296;29;20455;-88
2022/04/21 15:30:20;;;;;;;18.98;9.93;;;;;;;10.01;55.31;91770.63;4794616;29;20068;-88
2022/04/21 15:32:46;;;;;;;17.23;9.20;;;;;;;10.15;55.02;91766.09;4809991;29;20041;-90
2022/04/21 15:35:12;;;;;;;16.02;9.10;;;;;;;10.16;54.31;91767.66;4780845;29;20050;-88
2022/04/21 15:37:41;;;;;;;19.52;9.57;;;;;;;10.28;54.89;91771.56;4780288;29;20384;-89
2022/04/21 15:40:08;;;;;;;18.55;10.07;;;;;;;10.23;54.98;91748.16;4827237;29;20098;-88
2022/04/21 15:42:39;;;;;;;19.17;10.43;;;;;;;10.33;54.37;91766.22;4795617;29;20046;-91
2022/04/21 15:45:05;;;;;;;21.27;10.10;;;;;;;10.33;55.01;91771.44;4810989;29;20050;-91
2022/04/21 15:47:31;;;;;;;19.40;9.20;;;;;;;10.35;54.95;91764.84;4809969;29;20129;-90
2022/04/21 15:49:57;;;;;;;23.30;10.00;;;;;;;10.37;55.35;91764.53;4810639;29;20125;-90
2022/04/21 15:52:23;;;;;;;24.20;9.32;;;;;;;10.45;54.65;91763.81;4795293;29;20560;-90
2022/04/21 16:00:17;;;;;;;19.90;8.60;;;;;;;10.14;55.33;91748.88;4826850;29;20042;-91
2022/04/21 16:02:46;;;;;;;15.93;8.70;;;;;;;10.14;55.21;91738.41;4780792;29;20144;-89
2022/04/21 16:05:11;;;;;;;16.23;8.52;;;;;;;10.15;55.05;91734.72;4810245;29;20046;-88
2022/04/21 16:07:37;;;;;;;13.00;8.20;;;;;;;10.22;55.37;91747.34;4780578;29;20105;-88
2022/04/21 16:10:03;;;;;;;15.35;8.85;;;;;;;10.20;55.49;91742.44;4780606;29;20038;-90
2022/04/21 16:12:29;;;;;;;21.00;9.68;;;;;;;9.98;55.43;91724.19;4810667;29;20517;-88
2022/04/21 16:14:55;;;;;;;19.95;9.07;;;;;;;10.29;54.96;91744.34;4826753;29;20042;-88
2022/04/21 16:17:21;;;;;;;19.23;9.25;;;;;;;10.34;56.11;91737.13;4810877;29;20039;-89
2022/04/21 16:19:48;;;;;;;18.80;8.68;;;;;;;10.32;54.33;91720.22;4811835;29;20103;-89
2022/04/21 16:22:18;;;;;;;17.88;9.32;;;;;;;10.15;54.29;91721.63;4800442;29;20038;-89
2022/04/21 16:24:45;;;;;;;31.90;15.60;;;;;;;10.15;55.62;91719.03;4832104;29;20038;-91
2022/04/21 16:27:11;;;;;;;24.60;9.48;;;;;;;10.06;56.90;91740.97;4817467;29;20030;-90
2022/04/21 16:29:37;;;;;;;19.05;10.18;;;;;;;9.96;57.39;91723.72;4832967;29;20049;-89
2022/04/21 16:32:05;;;;;;;16.48;8.88;;;;;;;10.04;56.65;91732.66;4832855;29;20050;-88
2022/04/21 16:34:32;;;;;;;23.15;9.23;;;;;;;9.48;58.19;91734.78;4813656;29;20060;-89
2022/04/21 16:36:58;;;;;;;21.20;9.70;;;;;;;9.43;57.76;91725.22;4809473;29;20050;-88
2022/04/21 16:39:24;;;;;;;20.88;9.00;;;;;;;9.45;58.35;91706.66;4795007;29;20049;-89
2022/04/21 16:41:49;;;;;;;16.20;8.90;;;;;;;9.50;58.12;91711.75;4794166;29;20083;-89
2022/04/21 16:44:15;;;;;;;19.15;9.02;;;;;;;9.70;57.86;91729.56;4809245;29;20046;-90
2022/04/21 16:46:41;;;;;;;19.73;9.02;;;;;;;9.40;57.57;91699.72;4794292;29;20038;-89
2022/04/21 16:49:09;;;;;;;22.80;12.77;;;;;;;9.40;59.08;91696.34;4794845;29;20039;-89
2022/04/21 16:51:38;;;;;;;18.30;8.63;;;;;;;9.33;58.66;91689.69;4809807;29;20038;-89
2022/04/21 16:54:28;;;;;;;16.45;9.00;;;;;;;9.46;57.99;91708.22;4811804;29;20054;-89
2022/04/21 16:56:54;;;;;;;27.88;13.52;;;;;;;9.29;58.95;91698.41;4826604;29;20060;-89
2022/04/21 16:59:21;;;;;;;15.55;9.00;;;;;;;9.31;58.11;91728.38;4814961;29;20035;-89
2022/04/21 17:04:31;;;;;;;18.77;8.68;;;;;;;9.29;58.89;91722.69;4813922;29;20099;-89
2022/04/21 17:06:57;;;;;;;77.05;41.08;;;;;;;9.21;58.41;91718.19;4813489;29;20042;-89
2022/04/21 17:09:22;;;;;;;177.57;79.40;;;;;;;9.18;58.24;91721.38;4810823;29;20034;-88
2022/04/21 17:11:48;;;;;;;36.83;21.48;;;;;;;8.96;58.50;91682.94;4800946;29;20091;-88
2022/04/21 17:14:26;;;;;;;16.58;8.93;;;;;;;9.04;58.58;91687.47;4815002;29;20058;-88
2022/04/21 17:16:55;;;;;;;22.33;9.88;;;;;;;8.89;59.29;91665.09;4795038;29;20069;-88
2022/04/21 17:19:22;;;;;;;18.83;8.65;;;;;;;9.04;59.30;91676.25;4793769;29;20041;-88
2022/04/21 17:21:48;;;;;;;19.85;9.30;;;;;;;9.14;59.10;91686.47;4794899;29;20039;-88
2022/04/21 17:24:14;;;;;;;20.48;8.80;;;;;;;9.00;59.60;91647.34;4779566;29;20049;-88
2022/04/21 17:26:40;;;;;;;17.48;8.77;;;;;;;9.22;59.74;91677.16;4809050;29;20042;-89
2022/04/21 17:29:08;;;;;;;17.15;7.70;;;;;;;9.37;59.32;91695.84;4797233;29;20045;-87
2022/04/21 17:31:36;;;;;;;19.63;8.27;;;;;;;9.05;59.08;91649.88;4795092;29;20039;-87
2022/04/21 17:34:04;;;;;;;14.80;7.75;;;;;;;9.15;58.97;91670.50;4811392;29;20125;-88
2022/04/21 17:36:32;;;;;;;15.60;8.70;;;;;;;9.11;59.26;91676.63;4810696;29;20050;-87
2022/04/21 17:38:57;;;;;;;99.10;37.35;;;;;;;9.11;59.44;91692.28;4814121;29;20034;-89
2022/04/21 17:41:23;;;;;;;15.57;7.88;;;;;;;8.95;59.73;91694.47;4828089;29;20044;-87
2022/04/21 17:43:49;;;;;;;17.38;7.95;;;;;;;8.72;59.49;91659.75;4812308;29;20105;-88
2022/04/21 17:46:15;;;;;;;16.02;8.02;;;;;;;8.85;59.99;91671.19;4796814;29;20050;-88
2022/04/21 17:48:40;;;;;;;19.38;7.85;;;;;;;8.81;61.37;91665.03;4782346;29;20042;-88
2022/04/21 17:51:06;;;;;;;14.15;7.25;;;;;;;8.82;61.22;91675.16;4799349;29;20073;-87
2022/04/21 17:53:32;;;;;;;17.23;7.47;;;;;;;8.62;60.93;91646.91;4797353;29;20062;-89
2022/04/21 17:55:58;;;;;;;13.20;7.00;;;;;;;8.69;60.91;91675.97;4799349;29;20042;-88
2022/04/21 17:58:23;;;;;;;13.73;7.15;;;;;;;8.82;61.55;91703.88;4814373;29;20486;-89
2022/04/21 18:00:49;;;;;;;16.45;6.93;;;;;;;8.60;61.77;91675.13;4798896;29;20050;-88
2022/04/21 18:03:15;;;;;;;12.73;6.82;;;;;;;8.55;62.32;91676.75;4798108;29;20094;-88
2022/04/21 18:05:41;;;;;;;15.57;7.30;;;;;;;8.47;62.37;91669.63;4828729;29;20040;-89
2022/04/21 18:08:07;;;;;;;14.45;8.07;;;;;;;8.35;62.90;91648.47;4782350;29;20051;-89
2022/04/21 18:10:33;;;;;;;13.75;7.53;;;;;;;8.55;62.94;91686.44;4827338;29;20049;-89
2022/04/21 18:13:02;;;;;;;18.35;7.55;;;;;;;8.37;62.65;91669.81;4797686;29;20121;-89
2022/04/21 18:15:29;;;;;;;344.02;127.68;;;;;;;8.34;62.53;91676.38;4811992;29;20042;-89
2022/04/21 18:17:58;;;;;;;22.65;11.27;;;;;;;8.37;62.78;91689.91;4831109;29;20502;-91
2022/04/21 18:20:24;;;;;;;16.90;8.48;;;;;;;8.12;63.02;91668.47;4784212;29;20054;-88
2022/04/21 18:22:50;;;;;;;15.48;8.48;;;;;;;8.24;63.62;91694.84;4797824;29;20046;-88
2022/04/21 18:25:15;;;;;;;14.98;8.20;;;;;;;8.12;63.48;91694.53;4797716;29;20039;-87
2022/04/21 18:27:41;;;;;;;17.75;9.02;;;;;;;7.98;63.49;91691.94;4798126;29;20073;-87
2022/04/21 18:30:07;;;;;;;16.27;8.82;;;;;;;8.06;63.26;91711.34;4798814;29;20042;-88
2022/04/21 18:32:33;;;;;;;19.25;9.73;;;;;;;8.14;63.66;91713.28;4783685;29;20042;-88
2022/04/21 18:35:02;;;;;;;14.90;8.43;;;;;;;8.04;63.84;91693.41;4816219;29;20084;-88
2022/04/21 18:37:28;;;;;;;20.92;8.68;;;;;;;8.00;64.08;91682.00;4815418;29;20073;-88
2022/04/21 18:39:54;;;;;;;16.23;9.23;;;;;;;8.17;64.69;91714.53;4798041;29;20046;-88
2022/04/21 18:42:20;;;;;;;19.75;7.90;;;;;;;8.15;65.20;91704.41;4798149;29;20046;-88
2022/04/21 18:44:46;;;;;;;19.25;10.48;;;;;;;7.91;65.48;91674.06;4812686;29;20074;-87
2022/04/21 18:47:11;;;;;;;20.15;10.35;;;;;;;8.07;65.65;91698.03;4800766;29;20030;-87
2022/04/21 18:49:37;;;;;;;18.73;10.02;;;;;;;7.89;66.06;91676.19;4815826;29;20050;-88
2022/04/21 18:52:06;;;;;;;18.98;9.23;;;;;;;7.90;65.54;91685.56;4817701;29;20045;-89
2022/04/21 18:54:34;;;;;;;18.20;8.98;;;;;;;7.69;65.00;91651.28;4816453;29;20050;-88
2022/04/21 18:57:01;;;;;;;19.25;10.05;;;;;;;7.83;65.30;91672.13;4815671;29;20098;-88
2022/04/21 18:59:27;;;;;;;22.42;9.68;;;;;;;7.84;64.61;91683.34;4812778;29;20038;-88
2022/04/21 19:01:53;;;;;;;18.83;10.23;;;;;;;7.64;64.60;91651.38;4796300;29;20126;-89
2022/04/21 19:04:19;;;;;;;17.92;9.52;;;;;;;7.74;64.56;91660.06;4780796;29;20054;-88
2022/04/21 19:06:44;;;;;;;18.55;9.70;;;;;;;7.86;64.73;91676.00;4795740;29;20038;-89